Nearby METAR

 

KANW - Ainsworth, Nebraska, USA
Distance from station: SE 36mi, 57km
Updated: Sat, 17-Feb-2018 6:55pm CST
Clear
Clear
 Wind from SE
Wind: SE 8 mph , 13 km/h
Temperature: 32°F , 0°C
Wind Chill: 25°F , -4°C
Dew Point: 25°F , -4°C
Humidity: 75%
Barometer: 29.96 inHg , 1014.6 hPa
Clouds: Clear
Visibility: 10 miles , 16 km
2018/02/18 00:55 KANW 180055Z AUTO 13007KT 10SM CLR 00/M04 A2996 RMK AO2 T10051036
KICR - Winner, South Dakota, USA
Distance from station: NE 50mi, 80km
Updated: Sat, 17-Feb-2018 6:53pm CST
Clear
Clear
 Wind from ESE
Wind: ESE 9 mph , 15 km/h
Temperature: 28°F , -2°C
Wind Chill: 19°F , -7°C
Dew Point: 21°F , -6°C
Humidity: 74%
Barometer: 29.97 inHg , 1014.9 hPa
Clouds: Clear
Visibility: 10 miles , 16 km
2018/02/18 00:53 KICR 180053Z AUTO 11008KT 10SM CLR M02/M06 A2997 RMK AO2 SLP173 T10171056
 
KTIF - Thedford, Nebraska, USA
Distance from station: S 63mi, 101km
Updated: Sat, 17-Feb-2018 6:55pm CST
Clear
Clear
 Wind from SSE
Wind: SSE 9 mph , 15 km/h
Temperature: 34°F , 1°C
Wind Chill: 27°F , -3°C
Dew Point: 21°F , -6°C
Humidity: 60%
Barometer: 29.95 inHg , 1014.2 hPa
Clouds: Clear
2018/02/18 00:55 KTIF 180055Z AUTO 15008KT CLR 01/M06 A2995 RMK AO2 T00141058
K9V9 - Chamberlain, South Dakota, USA
Distance from station: NE 87mi, 141km
Updated: Sat, 17-Feb-2018 6:55pm CST
Clear
Clear
 Wind from ENE
Wind: ENE 5 mph , 7 km/h
Temperature: 27°F , -3°C
Wind Chill: 21°F , -6°C
Dew Point: 23°F , -5°C
Humidity: 86%
Barometer: 30.01 inHg , 1016.3 hPa
Clouds: Clear
Visibility: 10 miles , 16 km
2018/02/18 00:55 K9V9 180055Z AUTO 07004KT 10SM CLR M03/M05 A3001 RMK AO2 T10311050
 
KIEN - Pine Ridge, South Dakota, USA
Distance from station: W 99mi, 160km
Updated: Sat, 17-Feb-2018 6:52pm CST
Clear
Clear
 Wind from calm
Wind: Calm
Temperature: 36°F , 2°C
Dew Point: 19°F , -7°C
Humidity: 52%
Barometer: 29.81 inHg , 1009.5 hPa
Clouds: Clear
Visibility: 10 miles , 16 km
2018/02/18 00:52 KIEN 180052Z AUTO 00000KT 10SM CLR 02/M07 A2981 RMK AO2 SLP129 T00171067 $
KPIR - Pierre, South Dakota, USA
Distance from station: N 105mi, 169km
Updated: Sat, 17-Feb-2018 6:53pm CST
Clear
Clear
 Wind from SE
Wind: SE 5 mph , 7 km/h
Temperature: 18°F , -8°C
Wind Chill: 11°F , -12°C
Dew Point: 16°F , -9°C
Humidity: 93%
Barometer: 29.98 inHg , 1015.2 hPa
Clouds: Clear
Visibility: 10 miles , 16 km
2018/02/18 00:53 KPIR 180053Z AUTO 14004KT 10SM CLR M08/M09 A2998 RMK AO2 SLP179 T10831094
 
KLBF - North Platte, Nebraska, USA
Distance from station: S 120mi, 193km
Updated: Sat, 17-Feb-2018 6:53pm CST
Clear
Clear
 Wind from ESE
Wind: ESE 13 mph , 20 km/h
Temperature: 37°F , 3°C
Wind Chill: 29°F , -2°C
Dew Point: 23°F , -5°C
Humidity: 56%
Barometer: 29.98 inHg , 1015.2 hPa
Clouds: Clear
Visibility: 10 miles , 16 km
2018/02/18 00:53 KLBF 180053Z AUTO 12011KT 10SM CLR 03/M05 A2998 RMK AO2 SLP179 T00281050
KBBW - Broken Bow Muni, Nebraska, USA
Distance from station: SSE 110mi, 177km
Updated: Sat, 17-Feb-2018 6:53pm CST
Clear
Clear
 Wind from SSE
Wind: SSE 8 mph , 13 km/h
Temperature: 36°F , 2°C
Wind Chill: 30°F , -1°C
Dew Point: 23°F , -5°C
Humidity: 60%
Barometer: 30.02 inHg , 1016.6 hPa
Clouds: Clear
Visibility: 10 miles , 16 km
2018/02/18 00:53 KBBW 180053Z AUTO 15007KT 10SM CLR 02/M05 A3002 RMK AO2 SLP188 T00171050
 
KRAP - Rapid City, South Dakota, USA
Distance from station: NW 149mi, 240km
Updated: Sat, 17-Feb-2018 6:52pm CST
Mostly cloudy
Mostly cloudy
 Wind from calm
Wind: Calm
Temperature: 25°F , -4°C
Dew Point: 18°F , -8°C
Humidity: 74%
Barometer: 29.84 inHg , 1010.5 hPa
Clouds: Mostly cloudy
Visibility: 10 miles , 16 km
Cloud details: Mostly cloudy 1500 ft
Mostly cloudy 12000 ft
2018/02/18 00:52 KRAP 180052Z 00000KT 10SM BKN015 BKN120 M04/M08 A2984 RMK AO2 SLP143 T10441078